Time;durP1;ratioP1;P1;durP2;ratioP2;P2;SDS_P1;SDS_P2;PMS_P1;PMS_P2;Temp;Humidity;BMP_temperature;BMP_pressure;BME280_temperature;BME280_humidity;BME280_pressure;Samples;Min_cycle;Max_cycle;Signal;HPM_P1;HPM_P2
2021/01/02 00:00:47;;;;;;;22.53;14.57;;;0.70;99.90;;;;;;5074007;28;20257;-62
2021/01/02 00:03:33;;;;;;;20.20;14.07;;;0.70;99.90;;;;;;5073749;28;20209;-62
2021/01/02 00:06:07;;;;;;;19.17;13.23;;;0.70;99.90;;;;;;5073941;28;20212;-61
2021/01/02 00:08:37;;;;;;;20.43;13.60;;;0.80;99.90;;;;;;5073288;28;20236;-61
2021/01/02 00:11:32;;;;;;;18.90;13.07;;;0.80;99.90;;;;;;5073594;28;20204;-61
2021/01/02 00:14:13;;;;;;;20.40;14.03;;;0.80;99.90;;;;;;5073180;28;20213;-61
2021/01/02 00:17:18;;;;;;;20.53;13.40;;;0.80;99.90;;;;;;5072908;28;20208;-62
2021/01/02 00:20:04;;;;;;;18.97;13.00;;;0.80;99.90;;;;;;5072534;28;20708;-62
2021/01/02 00:22:40;;;;;;;17.63;11.43;;;0.80;99.90;;;;;;5073144;28;20580;-63
2021/01/02 00:25:11;;;;;;;17.70;12.47;;;0.70;99.90;;;;;;5072588;28;20205;-62
2021/01/02 00:28:01;;;;;;;16.47;12.10;;;0.60;99.90;;;;;;5072382;28;20233;-61
2021/01/02 00:30:53;;;;;;;19.63;12.60;;;0.70;99.90;;;;;;5072599;28;20370;-61
2021/01/02 00:33:28;;;;;;;20.80;13.90;;;0.70;99.90;;;;;;5072578;28;20299;-61
2021/01/02 00:36:02;;;;;;;20.33;13.23;;;0.80;99.90;;;;;;5072931;28;20208;-61
2021/01/02 00:38:29;;;;;;;18.77;12.90;;;0.90;99.90;;;;;;5073037;28;20224;-61
2021/01/02 00:40:55;;;;;;;21.27;12.97;;;1.00;99.90;;;;;;5072954;28;20224;-61
2021/01/02 00:43:22;;;;;;;22.57;15.37;;;1.00;99.90;;;;;;5072905;28;20209;-61
2021/01/02 00:45:48;;;;;;;20.93;13.73;;;1.10;99.90;;;;;;5073083;28;20201;-62
2021/01/02 00:48:15;;;;;;;22.37;15.67;;;1.10;99.90;;;;;;5072150;28;20258;-61
2021/01/02 00:50:44;;;;;;;20.43;14.40;;;1.20;99.90;;;;;;5072635;28;20672;-61
2021/01/02 00:53:45;;;;;;;18.63;12.47;;;1.20;99.90;;;;;;5072629;28;20205;-61
2021/01/02 00:56:28;;;;;;;18.33;12.97;;;1.20;99.90;;;;;;5072474;28;20201;-61
2021/01/02 00:59:30;;;;;;;19.20;12.87;;;1.20;99.90;;;;;;5071928;28;20267;-61
2021/01/02 01:02:14;;;;;;;17.57;12.17;;;1.20;99.90;;;;;;5072313;28;20204;-61
2021/01/02 01:05:03;;;;;;;16.63;11.60;;;1.10;99.90;;;;;;5072080;28;20216;-61
2021/01/02 01:07:32;;;;;;;20.40;12.73;;;1.10;99.90;;;;;;5072508;28;20229;-61
2021/01/02 01:10:00;;;;;;;16.80;11.70;;;1.20;99.90;;;;;;5071609;28;20323;-61
2021/01/02 01:12:29;;;;;;;15.67;11.17;;;1.20;99.90;;;;;;5072187;28;20216;-61
2021/01/02 01:14:55;;;;;;;14.23;10.57;;;1.30;99.90;;;;;;5072068;28;20204;-61
2021/01/02 01:17:23;;;;;;;15.23;10.30;;;1.20;99.90;;;;;;5071464;28;20254;-61
2021/01/02 01:19:54;;;;;;;17.00;10.77;;;1.30;99.90;;;;;;5072449;28;20224;-61
2021/01/02 01:22:25;;;;;;;15.30;10.60;;;1.20;99.90;;;;;;5072131;28;20240;-61
2021/01/02 01:25:03;;;;;;;14.73;10.53;;;1.10;99.90;;;;;;5072503;28;20299;-61
2021/01/02 01:27:35;;;;;;;16.27;10.77;;;1.00;99.90;;;;;;5073280;28;20241;-61
2021/01/02 01:30:03;;;;;;;15.83;10.87;;;1.10;99.90;;;;;;5072641;28;20201;-61
2021/01/02 01:32:29;;;;;;;17.87;11.80;;;1.20;99.90;;;;;;5072897;28;20216;-61
2021/01/02 01:34:58;;;;;;;17.80;11.10;;;1.20;99.90;;;;;;5072601;28;20216;-63
2021/01/02 01:37:29;;;;;;;15.63;10.83;;;1.20;99.90;;;;;;5072807;28;20233;-61
2021/01/02 01:39:57;;;;;;;16.20;10.83;;;1.30;99.90;;;;;;5071833;28;20228;-62
2021/01/02 01:42:41;;;;;;;15.50;10.23;;;1.40;99.90;;;;;;5071729;28;20677;-61
2021/01/02 01:45:23;;;;;;;16.93;11.37;;;1.50;99.90;;;;;;5070993;28;20209;-61
2021/01/02 01:48:04;;;;;;;16.70;11.13;;;1.60;99.90;;;;;;5070877;28;20324;-61
2021/01/02 01:50:50;;;;;;;17.83;11.03;;;1.60;99.90;;;;;;5071336;28;20219;-61
2021/01/02 01:53:37;;;;;;;16.33;11.10;;;1.70;99.90;;;;;;5070804;28;20239;-61
2021/01/02 01:56:14;;;;;;;21.07;12.17;;;1.70;99.90;;;;;;5070855;28;20201;-61
2021/01/02 01:59:28;;;;;;;21.40;12.83;;;1.70;99.90;;;;;;5070565;28;20224;-61
2021/01/02 02:01:56;;;;;;;19.77;11.67;;;1.70;99.90;;;;;;5070993;28;20209;-61
2021/01/02 02:04:50;;;;;;;21.00;12.73;;;1.70;99.90;;;;;;5072294;28;20212;-62
2021/01/02 02:07:17;;;;;;;17.23;11.10;;;1.80;99.90;;;;;;5073991;28;20574;-61
2021/01/02 02:09:53;;;;;;;19.07;11.57;;;1.80;99.90;;;;;;5073748;28;20201;-61
2021/01/02 02:12:23;;;;;;;16.33;10.73;;;1.90;99.90;;;;;;5074271;28;20211;-61
2021/01/02 02:15:04;;;;;;;19.47;11.90;;;2.00;99.90;;;;;;5073749;28;20263;-61
2021/01/02 02:17:40;;;;;;;20.70;12.53;;;2.00;99.90;;;;;;5073622;28;20716;-61
2021/01/02 02:20:08;;;;;;;19.73;12.10;;;2.00;99.90;;;;;;5073738;28;20221;-61
2021/01/02 02:22:36;;;;;;;17.60;11.60;;;2.10;99.90;;;;;;5073818;28;20212;-61
2021/01/02 02:25:04;;;;;;;21.20;11.97;;;2.10;99.90;;;;;;5073369;28;20212;-61
2021/01/02 02:27:35;;;;;;;26.33;14.47;;;2.10;99.90;;;;;;5073648;28;20224;-61
2021/01/02 02:30:09;;;;;;;22.90;12.63;;;2.00;99.90;;;;;;5073629;28;20576;-61
2021/01/02 02:32:38;;;;;;;24.33;13.80;;;2.00;99.90;;;;;;5074078;28;20577;-61
2021/01/02 02:35:07;;;;;;;21.77;12.03;;;2.00;99.90;;;;;;5073632;28;20219;-63
2021/01/02 02:37:35;;;;;;;29.10;12.43;;;2.00;99.90;;;;;;5073272;28;20747;-61
2021/01/02 02:40:02;;;;;;;22.23;12.17;;;2.10;99.90;;;;;;5073299;28;20225;-61
2021/01/02 02:42:34;;;;;;;23.90;12.70;;;2.10;99.90;;;;;;5073863;28;20205;-61
2021/01/02 02:45:01;;;;;;;23.70;12.50;;;2.10;99.90;;;;;;5073216;28;20204;-61
2021/01/02 02:47:30;;;;;;;27.00;13.13;;;2.10;99.90;;;;;;5073557;28;20607;-61
2021/01/02 02:49:58;;;;;;;23.93;12.33;;;2.10;99.90;;;;;;5073188;28;20201;-61
2021/01/02 02:52:33;;;;;;;29.27;14.20;;;2.10;99.90;;;;;;5073554;28;20299;-61
2021/01/02 02:55:00;;;;;;;25.30;12.60;;;2.00;99.90;;;;;;5073094;28;20212;-61
2021/01/02 02:57:29;;;;;;;31.70;13.20;;;1.90;99.90;;;;;;5073798;28;20225;-61
2021/01/02 02:59:56;;;;;;;30.17;13.07;;;1.90;99.90;;;;;;5073183;28;20278;-61
2021/01/02 03:02:22;;;;;;;24.07;12.33;;;1.90;99.90;;;;;;5073235;28;20205;-61
2021/01/02 03:04:48;;;;;;;27.93;12.67;;;1.90;99.90;;;;;;5073464;28;20211;-61
2021/01/02 03:07:15;;;;;;;35.70;13.07;;;1.90;99.90;;;;;;5073299;28;20415;-61
2021/01/02 03:09:41;;;;;;;28.43;12.47;;;2.00;99.90;;;;;;5073046;28;20212;-61
2021/01/02 03:12:07;;;;;;;32.77;13.43;;;2.00;99.90;;;;;;5073010;28;20227;-61
2021/01/02 03:14:34;;;;;;;42.87;14.67;;;2.10;99.90;;;;;;5073233;28;20211;-61
2021/01/02 03:17:01;;;;;;;62.50;14.00;;;2.10;99.90;;;;;;5073145;28;20795;-61
2021/01/02 03:19:28;;;;;;;45.50;14.47;;;2.10;99.90;;;;;;5073269;28;20577;-61
2021/01/02 03:21:55;;;;;;;57.57;16.07;;;2.10;99.90;;;;;;5072982;28;20212;-61
2021/01/02 03:24:21;;;;;;;59.23;16.37;;;2.10;99.90;;;;;;5072860;28;20208;-61
2021/01/02 03:26:48;;;;;;;60.03;16.47;;;2.10;99.90;;;;;;5073012;28;20754;-61
2021/01/02 03:29:14;;;;;;;84.27;15.97;;;2.20;99.90;;;;;;5072950;28;20205;-61
2021/01/02 03:31:40;;;;;;;44.50;13.87;;;2.20;99.90;;;;;;5072786;28;20200;-61
2021/01/02 03:34:08;;;;;;;52.63;13.77;;;2.20;99.90;;;;;;5072729;28;20673;-61
2021/01/02 03:36:34;;;;;;;55.07;13.67;;;2.20;99.90;;;;;;5072499;28;20204;-61
2021/01/02 03:39:01;;;;;;;48.67;13.57;;;2.00;99.90;;;;;;5072266;28;20209;-61
2021/01/02 03:41:28;;;;;;;56.87;14.03;;;2.00;99.90;;;;;;5072423;28;20236;-61
2021/01/02 03:43:54;;;;;;;43.37;13.23;;;1.90;99.90;;;;;;5072033;28;20212;-61
2021/01/02 03:46:27;;;;;;;66.83;12.70;;;1.90;99.90;;;;;;5072441;28;20212;-61
2021/01/02 03:48:53;;;;;;;61.93;12.23;;;1.90;99.90;;;;;;5072028;28;20221;-61
2021/01/02 03:51:23;;;;;;;62.10;11.77;;;1.90;99.90;;;;;;5072054;28;20677;-61
2021/01/02 03:53:49;;;;;;;53.97;12.63;;;1.90;99.90;;;;;;5072159;28;20630;-61
2021/01/02 03:56:15;;;;;;;50.13;12.03;;;1.90;99.90;;;;;;5072476;28;20213;-61
2021/01/02 03:58:41;;;;;;;55.50;12.17;;;1.90;99.90;;;;;;5072380;28;20220;-61
2021/01/02 04:01:08;;;;;;;51.27;12.10;;;1.90;99.90;;;;;;5072428;28;20224;-61
2021/01/02 04:03:34;;;;;;;42.47;11.20;;;2.00;99.90;;;;;;5072043;28;20201;-61
2021/01/02 04:06:00;;;;;;;53.73;11.30;;;2.00;99.90;;;;;;5071954;28;20212;-61
2021/01/02 04:08:27;;;;;;;36.60;10.53;;;2.00;99.90;;;;;;5071734;28;20612;-61
2021/01/02 04:10:53;;;;;;;42.87;11.47;;;2.00;99.90;;;;;;5072125;28;20212;-61
2021/01/02 04:13:19;;;;;;;36.70;10.57;;;2.00;99.90;;;;;;5072095;28;20204;-61
2021/01/02 04:15:45;;;;;;;38.20;9.90;;;2.00;99.90;;;;;;5071715;28;20209;-61
2021/01/02 04:18:12;;;;;;;47.20;12.23;;;2.00;99.90;;;;;;5071338;28;20241;-61
2021/01/02 04:20:38;;;;;;;35.37;12.00;;;2.00;99.90;;;;;;5071273;28;20228;-61
2021/01/02 04:23:04;;;;;;;35.70;11.13;;;2.00;99.90;;;;;;5072499;28;20627;-61
2021/01/02 04:25:31;;;;;;;45.77;11.30;;;2.00;99.90;;;;;;5071896;28;20208;-61
2021/01/02 04:27:57;;;;;;;41.03;11.63;;;2.10;99.90;;;;;;5070760;28;20229;-61
2021/01/02 04:30:24;;;;;;;40.67;11.10;;;2.10;99.90;;;;;;5071872;28;20221;-61
2021/01/02 04:32:50;;;;;;;30.57;10.80;;;2.10;99.90;;;;;;5071694;28;20221;-61
2021/01/02 04:35:16;;;;;;;37.40;11.33;;;2.10;99.90;;;;;;5071809;28;20208;-61
2021/01/02 04:37:42;;;;;;;35.43;11.27;;;2.20;99.90;;;;;;5071767;28;20256;-61
2021/01/02 04:40:11;;;;;;;31.70;11.43;;;2.30;99.90;;;;;;5071838;28;20570;-62
2021/01/02 04:42:41;;;;;;;29.47;11.50;;;2.40;99.90;;;;;;5071832;28;20201;-61
2021/01/02 04:45:08;;;;;;;30.43;11.60;;;2.40;99.90;;;;;;5071624;28;20581;-61
2021/01/02 04:47:37;;;;;;;28.00;10.67;;;2.50;99.90;;;;;;5071876;28;20608;-61
2021/01/02 04:50:06;;;;;;;22.37;11.17;;;2.50;99.90;;;;;;5071234;28;20208;-62
2021/01/02 04:52:33;;;;;;;25.37;9.77;;;2.50;99.90;;;;;;5071383;28;20209;-61
2021/01/02 04:54:59;;;;;;;15.50;9.63;;;2.50;99.90;;;;;;5070921;28;20251;-61
2021/01/02 04:57:26;;;;;;;16.20;10.20;;;2.50;99.90;;;;;;5070918;28;20232;-62
2021/01/02 04:59:53;;;;;;;13.60;9.17;;;2.50;99.90;;;;;;5071129;28;20216;-62
2021/01/02 05:02:20;;;;;;;16.00;9.77;;;2.50;99.90;;;;;;5071006;28;20683;-61
2021/01/02 05:04:47;;;;;;;17.80;11.30;;;2.50;99.90;;;;;;5071085;28;20232;-62
2021/01/02 05:07:23;;;;;;;17.87;10.67;;;2.50;99.90;;;;;;5070974;28;20712;-61
2021/01/02 05:09:49;;;;;;;19.07;11.20;;;2.50;99.90;;;;;;5070906;28;20228;-62
2021/01/02 05:12:29;;;;;;;20.03;11.73;;;2.50;99.90;;;;;;5070950;28;20212;-62
2021/01/02 05:15:07;;;;;;;20.47;11.90;;;2.40;99.90;;;;;;5070628;28;20715;-62
2021/01/02 05:17:33;;;;;;;17.97;10.97;;;2.40;99.90;;;;;;5070993;28;20239;-61
2021/01/02 05:20:09;;;;;;;16.73;10.87;;;2.40;99.90;;;;;;5070848;28;20278;-62
2021/01/02 05:22:37;;;;;;;17.97;10.77;;;2.50;99.90;;;;;;5071590;28;20209;-62
2021/01/02 05:25:09;;;;;;;16.87;10.27;;;2.50;99.90;;;;;;5072447;28;20212;-61
2021/01/02 05:27:36;;;;;;;14.27;9.47;;;2.60;99.90;;;;;;5071371;28;20679;-61
2021/01/02 05:30:25;;;;;;;15.80;10.13;;;2.60;99.90;;;;;;5071202;28;20278;-62
2021/01/02 05:33:08;;;;;;;14.70;9.33;;;2.70;99.90;;;;;;5070912;28;20205;-62
2021/01/02 05:35:37;;;;;;;14.97;9.23;;;2.80;99.90;;;;;;5070492;28;20258;-61
2021/01/02 05:38:14;;;;;;;28.77;18.40;;;2.80;99.90;;;;;;5070571;28;20240;-62
2021/01/02 05:40:42;;;;;;;16.90;11.13;;;2.80;99.90;;;;;;5074804;28;20281;-62
2021/01/02 05:43:08;;;;;;;15.47;10.23;;;2.80;99.90;;;;;;5074737;28;20578;-62
2021/01/02 05:45:35;;;;;;;21.77;14.37;;;2.80;99.90;;;;;;5074286;28;20209;-62
2021/01/02 05:48:20;;;;;;;14.33;9.50;;;2.80;99.90;;;;;;5074209;28;20227;-61
2021/01/02 05:50:48;;;;;;;13.30;8.97;;;2.80;99.90;;;;;;5074569;28;20205;-61
2021/01/02 05:53:23;;;;;;;11.90;8.70;;;2.80;99.90;;;;;;5074514;28;20215;-61
2021/01/02 05:56:04;;;;;;;13.47;8.13;;;2.80;99.90;;;;;;5074399;28;20212;-62
2021/01/02 05:58:31;;;;;;;14.07;9.53;;;2.70;99.90;;;;;;5074029;28;20224;-62
2021/01/02 06:01:06;;;;;;;13.07;9.00;;;2.70;99.90;;;;;;5074010;28;20275;-61
2021/01/02 06:03:35;;;;;;;12.10;8.80;;;2.70;99.90;;;;;;5074277;28;20211;-60
2021/01/02 06:06:03;;;;;;;14.77;9.93;;;2.70;99.90;;;;;;5074265;28;20468;-60
2021/01/02 06:08:32;;;;;;;15.40;9.97;;;2.80;99.90;;;;;;5073863;28;20247;-61
2021/01/02 06:11:01;;;;;;;14.73;9.90;;;2.80;99.90;;;;;;5074453;28;20215;-61
2021/01/02 06:13:29;;;;;;;50.70;39.13;;;2.70;99.90;;;;;;5074294;28;20216;-61
2021/01/02 06:15:58;;;;;;;35.73;29.57;;;2.80;99.90;;;;;;5074202;28;20515;-61
2021/01/02 06:18:27;;;;;;;12.10;9.17;;;2.70;99.90;;;;;;5073610;28;20263;-61
2021/01/02 06:20:56;;;;;;;13.83;9.03;;;2.70;99.90;;;;;;5073816;28;20221;-61
2021/01/02 06:23:25;;;;;;;14.70;9.03;;;2.70;99.90;;;;;;5074253;28;20205;-61
2021/01/02 06:25:53;;;;;;;12.87;8.67;;;2.80;99.90;;;;;;5074037;28;20205;-62
2021/01/02 06:28:20;;;;;;;14.43;10.03;;;2.80;99.90;;;;;;5074019;28;20252;-61
2021/01/02 06:30:47;;;;;;;12.23;9.00;;;2.90;99.90;;;;;;5073865;28;20640;-61
2021/01/02 06:33:15;;;;;;;16.57;10.43;;;2.90;99.90;;;;;;5073957;28;20209;-62
2021/01/02 06:35:42;;;;;;;13.23;9.20;;;2.90;99.90;;;;;;5073925;28;20201;-61
2021/01/02 06:38:15;;;;;;;27.07;17.33;;;2.90;99.90;;;;;;5073938;28;20228;-61
2021/01/02 06:40:45;;;;;;;14.10;10.20;;;3.00;99.90;;;;;;5074498;28;20228;-61
2021/01/02 06:43:12;;;;;;;14.97;10.50;;;3.00;99.90;;;;;;5074210;28;20694;-61
2021/01/02 06:45:52;;;;;;;19.67;14.07;;;3.10;99.90;;;;;;5073930;28;20208;-61
2021/01/02 06:48:37;;;;;;;21.93;15.40;;;3.20;99.90;;;;;;5073246;28;20279;-60
2021/01/02 06:51:32;;;;;;;26.77;16.67;;;3.20;99.90;;;;;;5073014;28;20672;-61
2021/01/02 06:54:02;;;;;;;22.73;14.40;;;3.20;99.90;;;;;;5073292;28;20220;-60
2021/01/02 06:56:36;;;;;;;17.80;12.93;;;3.30;99.90;;;;;;5073438;28;20752;-61
2021/01/02 06:59:04;;;;;;;17.20;11.03;;;3.20;99.90;;;;;;5073338;28;20260;-61
2021/01/02 07:01:40;;;;;;;14.53;10.30;;;3.20;99.90;;;;;;5073408;28;20808;-61
2021/01/02 07:04:07;;;;;;;21.20;12.97;;;3.20;99.90;;;;;;5073380;28;20227;-61
2021/01/02 07:06:42;;;;;;;14.93;9.80;;;3.30;99.90;;;;;;5073889;28;20200;-61
2021/01/02 07:09:26;;;;;;;21.37;13.10;;;3.30;99.90;;;;;;5074054;28;20581;-61
2021/01/02 07:12:13;;;;;;;16.33;11.17;;;3.30;99.90;;;;;;5073741;28;20204;-62
2021/01/02 07:14:41;;;;;;;14.77;10.50;;;3.40;99.90;;;;;;5073106;28;20619;-61
2021/01/02 07:17:10;;;;;;;16.47;10.93;;;3.40;99.90;;;;;;5073258;28;20704;-61
2021/01/02 07:19:47;;;;;;;13.27;9.70;;;3.40;99.90;;;;;;5073267;28;20219;-61
2021/01/02 07:22:28;;;;;;;15.53;10.37;;;3.50;99.90;;;;;;5073927;28;20573;-61
2021/01/02 07:24:58;;;;;;;15.93;9.73;;;3.50;99.90;;;;;;5073761;28;20214;-60
2021/01/02 07:27:25;;;;;;;14.60;10.53;;;3.60;99.90;;;;;;5074106;28;20260;-60
2021/01/02 07:29:53;;;;;;;13.63;9.40;;;3.60;99.90;;;;;;5073102;28;20589;-61
2021/01/02 07:32:21;;;;;;;12.77;8.70;;;3.60;99.90;;;;;;5073459;28;20212;-61
2021/01/02 07:34:49;;;;;;;11.67;8.60;;;3.60;99.90;;;;;;5073679;28;20208;-61
2021/01/02 07:37:17;;;;;;;12.30;8.50;;;3.70;99.90;;;;;;5073960;28;20260;-61
2021/01/02 07:39:55;;;;;;;10.57;8.70;;;3.70;99.90;;;;;;5073463;28;20285;-61
2021/01/02 07:42:23;;;;;;;13.73;8.63;;;3.80;99.90;;;;;;5074180;28;20204;-60
2021/01/02 07:44:58;;;;;;;12.50;8.70;;;3.90;99.90;;;;;;5073387;28;20208;-61
2021/01/02 07:47:25;;;;;;;14.13;9.93;;;4.00;99.90;;;;;;5073027;28;20285;-61
2021/01/02 07:50:06;;;;;;;16.83;9.97;;;3.90;99.90;;;;;;5071986;28;20212;-60
2021/01/02 07:52:32;;;;;;;16.17;11.47;;;3.80;99.90;;;;;;5072305;28;20254;-60
2021/01/02 07:55:07;;;;;;;14.63;10.20;;;3.70;99.90;;;;;;5071989;28;20209;-60
2021/01/02 07:57:33;;;;;;;13.80;10.23;;;3.70;99.90;;;;;;5071976;28;20235;-61
2021/01/02 07:59:59;;;;;;;13.47;9.93;;;3.60;99.90;;;;;;5071976;28;20220;-61
2021/01/02 08:02:26;;;;;;;12.73;9.07;;;3.60;99.90;;;;;;5072101;28;20204;-61
2021/01/02 08:04:54;;;;;;;13.20;9.97;;;3.60;99.90;;;;;;5071991;28;20247;-61
2021/01/02 08:07:21;;;;;;;13.50;9.73;;;3.70;99.90;;;;;;5072148;28;20224;-61
2021/01/02 08:09:48;;;;;;;16.07;11.13;;;3.80;99.90;;;;;;5071956;28;20263;-61
2021/01/02 08:12:17;;;;;;;11.53;8.50;;;3.90;99.90;;;;;;5071818;28;20213;-61
2021/01/02 08:14:45;;;;;;;17.13;10.67;;;4.00;99.90;;;;;;5071630;28;20208;-61
2021/01/02 08:17:12;;;;;;;17.63;12.67;;;4.10;99.90;;;;;;5071838;28;20233;-60
2021/01/02 08:19:42;;;;;;;14.17;9.60;;;4.20;99.90;;;;;;5071830;28;20223;-60
2021/01/02 08:22:09;;;;;;;15.70;10.17;;;4.20;99.90;;;;;;5072506;28;20228;-60
2021/01/02 08:24:36;;;;;;;13.93;9.60;;;4.30;99.90;;;;;;5071817;28;20597;-60
2021/01/02 08:27:03;;;;;;;12.60;9.00;;;4.20;99.90;;;;;;5072363;28;20225;-61
2021/01/02 08:29:33;;;;;;;13.40;9.77;;;4.20;99.90;;;;;;5071624;28;20208;-60
2021/01/02 08:32:04;;;;;;;14.63;9.37;;;3.90;99.90;;;;;;5072189;28;20197;-61
2021/01/02 08:34:33;;;;;;;14.67;10.63;;;3.90;99.90;;;;;;5071621;28;20262;-61
2021/01/02 08:37:06;;;;;;;17.60;12.20;;;4.00;99.90;;;;;;5071269;28;20225;-61
2021/01/02 08:39:33;;;;;;;15.03;9.23;;;4.10;99.90;;;;;;5071335;28;20220;-61
2021/01/02 08:42:00;;;;;;;14.37;9.73;;;4.20;99.90;;;;;;5071307;28;20278;-61
2021/01/02 08:44:35;;;;;;;12.77;9.23;;;4.30;99.90;;;;;;5070906;28;20246;-60
2021/01/02 08:47:01;;;;;;;12.20;9.30;;;4.40;99.90;;;;;;5071171;28;20224;-61
2021/01/02 08:49:44;;;;;;;17.80;10.40;;;4.50;99.90;;;;;;5070777;28;20201;-58
2021/01/02 08:52:18;;;;;;;15.47;11.90;;;4.50;99.90;;;;;;5071145;28;20254;-57
2021/01/02 08:54:45;;;;;;;12.83;9.43;;;4.60;99.90;;;;;;5070602;28;20211;-57
2021/01/02 08:57:31;;;;;;;11.77;8.70;;;4.70;99.90;;;;;;5071135;28;20228;-57
2021/01/02 09:00:07;;;;;;;12.00;9.40;;;4.80;99.90;;;;;;5070841;28;20208;-58
2021/01/02 09:02:34;;;;;;;11.87;9.10;;;4.90;99.90;;;;;;5071699;28;20212;-58
2021/01/02 09:05:05;;;;;;;13.60;9.17;;;5.00;99.90;;;;;;5070739;28;20236;-57
2021/01/02 09:07:32;;;;;;;12.60;9.20;;;5.00;99.90;;;;;;5071290;28;20286;-57
2021/01/02 09:10:16;;;;;;;12.33;9.10;;;5.30;99.90;;;;;;5070739;28;20201;-57
2021/01/02 09:12:43;;;;;;;12.60;9.77;;;5.10;99.90;;;;;;5070915;28;20353;-57
2021/01/02 09:15:11;;;;;;;11.70;8.80;;;5.10;99.90;;;;;;5070374;28;20213;-57
2021/01/02 09:17:47;;;;;;;12.03;9.10;;;5.10;99.90;;;;;;5071228;28;20746;-58
2021/01/02 09:20:18;;;;;;;15.57;11.97;;;5.20;99.90;;;;;;5070896;28;20632;-57
2021/01/02 09:22:54;;;;;;;14.37;9.93;;;5.20;99.90;;;;;;5070936;28;20292;-58
2021/01/02 09:25:27;;;;;;;11.90;9.47;;;5.10;99.90;;;;;;5070685;28;20212;-58
2021/01/02 09:27:53;;;;;;;12.37;9.80;;;5.20;99.90;;;;;;5070443;28;20270;-58
2021/01/02 09:30:21;;;;;;;11.97;9.07;;;5.40;99.90;;;;;;5070664;28;20205;-58
2021/01/02 09:32:47;;;;;;;12.03;9.67;;;5.50;99.90;;;;;;5070558;28;20626;-58
2021/01/02 09:35:14;;;;;;;15.10;10.43;;;5.60;99.90;;;;;;5070509;28;20205;-57
2021/01/02 09:37:42;;;;;;;13.47;10.43;;;5.60;99.90;;;;;;5070292;28;20708;-58
2021/01/02 09:40:14;;;;;;;14.43;11.37;;;5.50;99.90;;;;;;5070840;28;20200;-58
2021/01/02 09:42:41;;;;;;;13.73;10.60;;;5.40;99.90;;;;;;5070982;28;20205;-58
2021/01/02 09:45:08;;;;;;;13.33;10.43;;;5.40;99.90;;;;;;5070298;28;20201;-58
2021/01/02 09:47:34;;;;;;;13.63;10.73;;;5.30;99.90;;;;;;5070425;28;20225;-59
2021/01/02 09:50:00;;;;;;;14.60;11.20;;;5.10;99.90;;;;;;5070073;28;20201;-59
2021/01/02 09:52:26;;;;;;;13.27;10.40;;;5.00;99.90;;;;;;5070364;28;20205;-58
2021/01/02 09:54:52;;;;;;;15.10;11.87;;;4.90;99.90;;;;;;5069936;28;20737;-57
2021/01/02 09:57:19;;;;;;;17.67;13.67;;;4.90;99.90;;;;;;5070418;28;20225;-58
2021/01/02 09:59:46;;;;;;;15.60;11.80;;;4.90;99.90;;;;;;5070069;28;20212;-58
2021/01/02 10:02:12;;;;;;;13.93;11.00;;;5.10;99.90;;;;;;5070738;28;20221;-59
2021/01/02 10:04:42;;;;;;;15.27;11.70;;;5.20;99.90;;;;;;5069919;28;20209;-58
2021/01/02 10:07:08;;;;;;;15.00;11.37;;;5.20;99.90;;;;;;5070349;28;20278;-58
2021/01/02 10:09:39;;;;;;;14.90;11.57;;;5.10;99.90;;;;;;5070092;28;20205;-58
2021/01/02 10:12:06;;;;;;;14.23;11.17;;;5.20;99.90;;;;;;5070323;28;20691;-58
2021/01/02 10:14:33;;;;;;;16.07;11.67;;;5.30;99.90;;;;;;5070145;28;20212;-58
2021/01/02 10:17:00;;;;;;;15.27;11.47;;;5.40;99.90;;;;;;5070126;28;20240;-58
2021/01/02 10:19:26;;;;;;;16.37;11.80;;;5.50;99.90;;;;;;5070037;28;20212;-58
2021/01/02 10:21:52;;;;;;;14.50;11.63;;;5.40;99.90;;;;;;5070757;28;20232;-58
2021/01/02 10:24:18;;;;;;;14.80;10.90;;;5.30;99.90;;;;;;5070220;28;20685;-59
2021/01/02 10:26:45;;;;;;;14.10;12.10;;;5.10;99.90;;;;;;5072638;28;20204;-58
2021/01/02 10:29:11;;;;;;;13.87;10.80;;;5.20;99.90;;;;;;5073172;28;20650;-58
2021/01/02 10:31:38;;;;;;;13.37;11.07;;;5.30;99.90;;;;;;5073478;28;20201;-58
2021/01/02 10:34:05;;;;;;;14.97;11.57;;;5.20;99.90;;;;;;5073674;28;20264;-57
2021/01/02 10:36:31;;;;;;;15.67;12.00;;;5.30;99.90;;;;;;5073596;28;20209;-58
2021/01/02 10:38:57;;;;;;;15.23;11.83;;;5.40;99.90;;;;;;5073216;28;20201;-58
2021/01/02 10:41:23;;;;;;;14.63;11.23;;;5.50;99.90;;;;;;5073471;28;20220;-58
2021/01/02 10:43:50;;;;;;;15.10;11.57;;;5.70;99.90;;;;;;5073259;28;20561;-58
2021/01/02 10:46:16;;;;;;;18.57;12.27;;;5.80;99.90;;;;;;5073300;28;20228;-58
2021/01/02 10:48:43;;;;;;;17.23;12.90;;;5.80;99.90;;;;;;5073272;28;20228;-57
2021/01/02 10:51:13;;;;;;;17.63;12.00;;;5.70;99.90;;;;;;5073250;28;20673;-58
2021/01/02 10:53:39;;;;;;;16.57;12.57;;;5.70;99.90;;;;;;5073081;28;20205;-58
2021/01/02 10:56:09;;;;;;;14.47;11.63;;;5.70;99.90;;;;;;5073398;28;20201;-58
2021/01/02 10:58:35;;;;;;;15.80;11.93;;;5.70;99.90;;;;;;5072741;28;20229;-58
2021/01/02 11:01:03;;;;;;;16.33;12.20;;;5.50;99.90;;;;;;5073208;28;20220;-58
2021/01/02 11:03:30;;;;;;;18.67;13.13;;;5.40;99.90;;;;;;5072982;28;20591;-58
2021/01/02 11:05:57;;;;;;;16.57;12.87;;;5.40;99.90;;;;;;5073271;28;20209;-58
2021/01/02 11:08:23;;;;;;;17.47;13.47;;;5.20;99.90;;;;;;5072636;28;20225;-58
2021/01/02 11:10:49;;;;;;;17.57;13.77;;;5.10;99.90;;;;;;5072997;28;20201;-58
2021/01/02 11:13:15;;;;;;;18.00;13.53;;;5.00;99.90;;;;;;5072877;28;20591;-58
2021/01/02 11:15:42;;;;;;;17.00;12.83;;;5.20;99.90;;;;;;5073075;28;20204;-60
2021/01/02 11:18:08;;;;;;;22.90;14.80;;;5.30;99.90;;;;;;5072868;28;20236;-58
2021/01/02 11:20:34;;;;;;;18.63;13.43;;;5.50;99.90;;;;;;5073008;28;20701;-58
2021/01/02 11:23:01;;;;;;;17.80;13.23;;;5.70;99.90;;;;;;5072954;28;20205;-57
2021/01/02 11:25:27;;;;;;;18.47;13.43;;;5.90;99.90;;;;;;5072333;28;20212;-59
2021/01/02 11:27:53;;;;;;;16.73;12.83;;;5.90;99.90;;;;;;5072249;28;20608;-58
2021/01/02 11:30:21;;;;;;;16.73;12.67;;;6.00;99.90;;;;;;5073241;28;20216;-58
2021/01/02 11:32:48;;;;;;;18.10;13.33;;;6.00;99.90;;;;;;5072748;28;20215;-57
2021/01/02 11:35:14;;;;;;;19.50;13.87;;;6.00;99.90;;;;;;5072542;28;20213;-59
2021/01/02 11:37:40;;;;;;;18.67;12.73;;;5.80;99.90;;;;;;5071755;28;20804;-58
2021/01/02 11:40:08;;;;;;;16.80;12.63;;;5.80;99.90;;;;;;5072942;28;20220;-58
2021/01/02 11:42:34;;;;;;;17.83;13.47;;;5.90;99.90;;;;;;5072197;28;20229;-58
2021/01/02 11:45:00;;;;;;;16.73;12.43;;;5.80;99.90;;;;;;5072263;28;20208;-59
2021/01/02 11:47:27;;;;;;;16.83;12.60;;;5.70;99.90;;;;;;5072241;28;20221;-59
2021/01/02 11:49:53;;;;;;;16.83;13.00;;;5.50;99.90;;;;;;5072205;28;20201;-58
2021/01/02 11:52:19;;;;;;;18.43;13.33;;;5.40;99.90;;;;;;5072726;28;20204;-59
2021/01/02 11:54:45;;;;;;;15.97;12.77;;;5.40;99.90;;;;;;5072332;28;20217;-58
2021/01/02 11:57:12;;;;;;;18.90;13.23;;;5.50;99.90;;;;;;5072005;28;20233;-59
2021/01/02 11:59:42;;;;;;;18.50;12.50;;;5.60;99.90;;;;;;5072137;28;20209;-58
2021/01/02 12:02:09;;;;;;;18.83;12.43;;;5.60;99.90;;;;;;5072265;28;20592;-58
2021/01/02 12:04:35;;;;;;;19.17;13.37;;;5.70;99.90;;;;;;5072282;28;20200;-58
2021/01/02 12:07:03;;;;;;;17.90;13.40;;;5.60;99.90;;;;;;5072361;28;20221;-58
2021/01/02 12:09:30;;;;;;;17.63;12.60;;;5.60;99.90;;;;;;5071917;28;20204;-58
2021/01/02 12:11:57;;;;;;;18.37;12.70;;;5.50;99.90;;;;;;5072224;28;20277;-58
2021/01/02 12:14:26;;;;;;;18.70;12.80;;;5.40;99.90;;;;;;5071879;28;20204;-58
2021/01/02 12:16:55;;;;;;;18.30;13.30;;;5.50;99.90;;;;;;5072069;28;20241;-60
2021/01/02 12:19:23;;;;;;;19.53;13.33;;;5.70;99.90;;;;;;5072580;28;20216;-59
2021/01/02 12:21:51;;;;;;;18.47;12.73;;;5.60;99.90;;;;;;5071673;28;20231;-59
2021/01/02 12:24:17;;;;;;;19.77;12.33;;;5.60;99.90;;;;;;5071036;28;20230;-59
2021/01/02 12:26:45;;;;;;;18.23;12.83;;;5.40;99.90;;;;;;5071802;28;20209;-59
2021/01/02 12:29:12;;;;;;;20.10;13.87;;;5.30;99.90;;;;;;5071024;28;20201;-58
2021/01/02 12:31:41;;;;;;;17.13;13.43;;;5.50;99.90;;;;;;5071392;28;20204;-59
2021/01/02 12:34:07;;;;;;;18.90;13.60;;;5.60;99.90;;;;;;5071008;28;20673;-59
2021/01/02 12:36:39;;;;;;;41.27;30.07;;;5.80;99.90;;;;;;5071201;28;20232;-59
2021/01/02 12:39:05;;;;;;;17.90;12.80;;;6.10;99.90;;;;;;5071440;28;20212;-59
2021/01/02 12:41:32;;;;;;;18.37;12.47;;;6.00;99.90;;;;;;5070905;28;20224;-59
2021/01/02 12:43:59;;;;;;;18.23;13.50;;;5.80;99.90;;;;;;5091299;28;20247;-63
2021/01/02 12:46:25;;;;;;;19.40;14.03;;;5.60;99.90;;;;;;5091477;28;20668;-60
2021/01/02 12:48:53;;;;;;;16.97;12.23;;;5.50;99.90;;;;;;5071502;28;20281;-60
2021/01/02 12:51:21;;;;;;;19.53;13.20;;;5.50;99.90;;;;;;5071376;28;20372;-61
2021/01/02 12:53:48;;;;;;;18.43;13.27;;;5.60;99.90;;;;;;5070610;28;20205;-62